createdAt,value
2018-11-13T00:00:24.411Z,32.95
2018-11-13T00:01:27.739Z,29.70
2018-11-13T00:02:31.080Z,28.02
2018-11-13T00:03:34.449Z,30.52
2018-11-13T00:04:37.956Z,31.95
2018-11-13T00:05:41.270Z,28.20
2018-11-13T00:06:44.590Z,33.67
2018-11-13T00:07:47.906Z,29.92
2018-11-13T00:08:51.255Z,36.28
2018-11-13T00:09:54.571Z,32.23
2018-11-13T00:10:57.887Z,31.45
2018-11-13T00:12:01.206Z,32.45
2018-11-13T00:13:04.603Z,40.95
2018-11-13T00:14:07.947Z,33.05
2018-11-13T00:15:11.893Z,33.90
2018-11-13T00:16:15.200Z,31.05
2018-11-13T00:17:18.520Z,30.85
2018-11-13T00:18:21.831Z,30.17
2018-11-13T00:19:25.208Z,35.30
2018-11-13T00:20:28.514Z,35.08
2018-11-13T00:21:31.807Z,32.13
2018-11-13T00:22:35.180Z,34.73
2018-11-13T00:23:38.480Z,35.28
2018-11-13T00:24:41.779Z,39.03
2018-11-13T00:25:45.128Z,31.65
2018-11-13T00:26:48.541Z,35.52
2018-11-13T00:27:51.873Z,29.63
2018-11-13T00:28:55.206Z,37.63
2018-11-13T00:29:58.513Z,37.70
2018-11-13T00:31:01.857Z,37.80
2018-11-13T00:32:05.584Z,31.70
2018-11-13T00:33:08.882Z,36.28
2018-11-13T00:34:12.218Z,36.15
2018-11-13T00:35:16.313Z,41.08
2018-11-13T00:36:19.635Z,34.00
2018-11-13T00:37:23.009Z,32.90
2018-11-13T00:38:26.400Z,37.30
2018-11-13T00:39:29.708Z,34.30
2018-11-13T00:40:33.059Z,38.13
2018-11-13T00:41:36.367Z,38.53
2018-11-13T00:42:40.148Z,36.73
2018-11-13T00:43:43.512Z,31.90
2018-11-13T00:44:46.837Z,37.00
2018-11-13T00:45:50.184Z,35.43
2018-11-13T00:46:53.493Z,31.60
2018-11-13T00:47:56.838Z,36.77
2018-11-13T00:49:00.302Z,40.38
2018-11-13T00:50:03.719Z,35.20
2018-11-13T00:51:07.041Z,43.15
2018-11-13T00:52:10.403Z,37.60
2018-11-13T00:53:13.755Z,32.05
2018-11-13T00:54:17.075Z,35.73
2018-11-13T00:55:20.427Z,37.95
2018-11-13T00:56:23.756Z,36.05
2018-11-13T00:57:27.071Z,37.65
2018-11-13T00:58:30.419Z,37.80
2018-11-13T00:59:33.725Z,43.38
2018-11-13T01:00:37.042Z,39.00
2018-11-13T01:01:40.453Z,38.83
2018-11-13T01:02:44.090Z,38.88
2018-11-13T01:03:47.408Z,37.88
2018-11-13T01:04:50.712Z,45.25
2018-11-13T01:05:54.233Z,46.85
2018-11-13T01:06:57.403Z,40.43
2018-11-13T01:08:00.717Z,40.98
2018-11-13T01:09:04.666Z,40.05
2018-11-13T01:10:09.706Z,46.18
2018-11-13T01:11:13.079Z,44.33
2018-11-13T01:12:16.386Z,38.35
2018-11-13T01:13:19.700Z,40.25
2018-11-13T01:14:23.043Z,38.38
2018-11-13T01:15:26.348Z,40.63
2018-11-13T01:16:29.703Z,37.35
2018-11-13T01:17:33.262Z,40.88
2018-11-13T01:18:36.387Z,38.28
2018-11-13T01:19:39.787Z,37.65
2018-11-13T01:20:43.099Z,37.35
2018-11-13T01:21:46.513Z,36.73
2018-11-13T01:22:49.876Z,36.58
2018-11-13T01:23:53.227Z,34.63
2018-11-13T01:24:56.562Z,37.90
2018-11-13T01:25:59.919Z,39.98
2018-11-13T01:27:03.239Z,41.05
2018-11-13T01:28:06.595Z,40.25
2018-11-13T01:29:09.907Z,41.45
2018-11-13T01:30:14.243Z,38.25
2018-11-13T01:31:17.632Z,44.38
2018-11-13T01:32:20.948Z,41.85
2018-11-13T01:33:24.292Z,38.08
2018-11-13T01:34:27.647Z,44.75
2018-11-13T01:35:30.964Z,37.48
2018-11-13T01:36:34.312Z,41.50
2018-11-13T01:37:37.631Z,38.13
2018-11-13T01:38:40.986Z,39.18
2018-11-13T01:39:44.335Z,41.70
2018-11-13T01:40:47.675Z,43.28
2018-11-13T01:41:51.000Z,42.17
2018-11-13T01:42:54.344Z,46.23
2018-11-13T01:43:57.692Z,42.30
2018-11-13T01:45:01.038Z,40.28
2018-11-13T01:46:04.387Z,42.45
2018-11-13T01:47:07.715Z,36.68
2018-11-13T01:48:11.036Z,38.02
2018-11-13T01:49:14.897Z,40.95
2018-11-13T01:50:18.780Z,40.10
2018-11-13T01:51:22.100Z,41.00
2018-11-13T01:52:25.423Z,38.08
2018-11-13T01:53:28.727Z,38.00
2018-11-13T01:54:32.299Z,39.10
2018-11-13T01:55:35.407Z,36.17
2018-11-13T01:56:38.711Z,40.98
2018-11-13T01:57:42.040Z,40.45
2018-11-13T01:58:45.366Z,41.77
2018-11-13T01:59:48.720Z,55.10
2018-11-13T02:00:52.057Z,39.35
2018-11-13T02:01:55.407Z,41.48
2018-11-13T02:02:58.752Z,41.98
2018-11-13T02:04:02.072Z,39.27
2018-11-13T02:05:05.698Z,43.73
2018-11-13T02:06:09.002Z,48.55
2018-11-13T02:07:12.356Z,46.35
2018-11-13T02:08:15.660Z,49.35
2018-11-13T02:09:18.984Z,43.10
2018-11-13T02:10:22.511Z,47.58
2018-11-13T02:11:25.864Z,49.75
2018-11-13T02:12:29.179Z,48.65
2018-11-13T02:13:32.491Z,48.38
2018-11-13T02:14:35.791Z,47.08
2018-11-13T02:15:39.120Z,42.58
2018-11-13T02:16:42.462Z,42.78
2018-11-13T02:17:45.775Z,38.53
2018-11-13T02:18:49.083Z,42.83
2018-11-13T02:19:52.791Z,41.98
2018-11-13T02:20:56.101Z,43.55
2018-11-13T02:21:59.411Z,44.95
2018-11-13T02:23:02.725Z,40.10
2018-11-13T02:24:06.075Z,48.30
2018-11-13T02:25:12.158Z,44.75
2018-11-13T02:26:15.471Z,37.48
2018-11-13T02:27:18.790Z,43.92
2018-11-13T02:28:22.140Z,48.10
2018-11-13T02:29:25.449Z,48.20
2018-11-13T02:30:28.773Z,41.83
2018-11-13T02:31:32.073Z,39.23
2018-11-13T02:32:35.381Z,38.80
2018-11-13T02:33:38.674Z,39.27
2018-11-13T02:34:41.981Z,40.38
2018-11-13T02:35:45.383Z,45.20
2018-11-13T02:36:48.644Z,44.75
2018-11-13T02:37:51.948Z,49.20
2018-11-13T02:38:55.251Z,40.58
2018-11-13T02:39:58.555Z,42.93
2018-11-13T02:41:01.945Z,46.40
2018-11-13T02:42:05.869Z,49.35
2018-11-13T02:43:09.180Z,42.73
2018-11-13T02:44:12.523Z,47.53
2018-11-13T02:45:17.432Z,43.40
2018-11-13T02:46:20.837Z,43.90
2018-11-13T02:47:24.100Z,38.90
2018-11-13T02:48:27.408Z,44.93
2018-11-13T02:49:30.751Z,52.73
2018-11-13T02:50:34.050Z,41.92
2018-11-13T02:51:37.622Z,42.78
2018-11-13T02:52:41.495Z,45.58
2018-11-13T02:53:44.827Z,48.70
2018-11-13T02:54:48.127Z,47.78
2018-11-13T02:55:51.431Z,46.77
2018-11-13T02:56:54.764Z,45.95
2018-11-13T02:57:58.108Z,44.13
2018-11-13T02:59:01.460Z,42.60
2018-11-13T03:00:07.319Z,48.08
2018-11-13T03:01:10.616Z,43.08
2018-11-13T03:02:14.007Z,46.45
2018-11-13T03:03:17.400Z,47.85
2018-11-13T03:04:20.711Z,50.92
2018-11-13T03:05:24.040Z,45.38
2018-11-13T03:06:27.351Z,45.63
2018-11-13T03:07:30.695Z,51.55
2018-11-13T03:08:34.023Z,44.93
2018-11-13T03:09:37.339Z,48.70
2018-11-13T03:10:40.639Z,57.58
2018-11-13T03:12:53.562Z,51.18
2018-11-13T03:13:56.931Z,48.78
2018-11-13T03:15:00.214Z,45.38
2018-11-13T03:16:03.527Z,50.08
2018-11-13T03:17:06.975Z,53.60
2018-11-13T03:18:10.291Z,51.88
2018-11-13T03:19:13.624Z,54.27
2018-11-13T03:20:18.344Z,51.20
2018-11-13T03:21:21.603Z,53.08
2018-11-13T03:22:24.974Z,45.28
2018-11-13T03:23:28.285Z,49.48
2018-11-13T03:24:31.645Z,50.78
2018-11-13T03:25:34.955Z,53.35
2018-11-13T03:26:38.267Z,46.45
2018-11-13T03:27:41.580Z,48.15
2018-11-13T03:28:44.892Z,51.55
2018-11-13T03:29:48.251Z,53.75
2018-11-13T03:30:51.574Z,44.48
2018-11-13T03:31:54.887Z,53.08
2018-11-13T03:32:58.212Z,50.05
2018-11-13T03:34:01.527Z,57.45
2018-11-13T03:35:05.315Z,57.70
2018-11-13T03:36:08.631Z,50.52
2018-11-13T03:37:11.938Z,55.78
2018-11-13T03:38:15.280Z,52.27
2018-11-13T03:39:18.583Z,51.75
2018-11-13T03:40:21.949Z,52.00
2018-11-13T03:41:25.331Z,49.38
2018-11-13T03:42:28.623Z,57.13
2018-11-13T03:43:31.927Z,49.67
2018-11-13T03:44:35.256Z,44.35
2018-11-13T03:45:38.619Z,58.63
2018-11-13T03:46:41.944Z,54.93
2018-11-13T03:47:45.255Z,54.13
2018-11-13T03:48:48.627Z,50.88
2018-11-13T03:49:51.988Z,54.33
2018-11-13T03:50:55.299Z,57.90
2018-11-13T03:51:58.615Z,54.63
2018-11-13T03:53:01.948Z,54.67
2018-11-13T03:54:06.072Z,61.40
2018-11-13T03:55:11.548Z,52.15
2018-11-13T03:56:14.870Z,51.95
2018-11-13T03:57:18.196Z,50.55
2018-11-13T03:58:21.559Z,54.67
2018-11-13T03:59:24.927Z,63.50
2018-11-13T04:00:28.301Z,54.67
2018-11-13T04:01:31.650Z,56.58
2018-11-13T04:02:34.968Z,55.35
2018-11-13T04:03:38.288Z,51.10
2018-11-13T04:04:41.627Z,51.05
2018-11-13T04:05:44.971Z,53.85
2018-11-13T04:06:48.289Z,58.40
2018-11-13T04:07:54.228Z,53.85
2018-11-13T04:08:57.531Z,53.35
2018-11-13T04:10:00.847Z,48.50
2018-11-13T04:11:05.026Z,56.85
2018-11-13T04:12:08.340Z,51.25
2018-11-13T04:13:11.676Z,49.90
2018-11-13T04:14:14.991Z,47.53
2018-11-13T04:15:21.650Z,52.45
2018-11-13T04:16:24.986Z,53.85
2018-11-13T04:17:28.299Z,49.83
2018-11-13T04:18:31.608Z,47.75
2018-11-13T04:19:34.926Z,50.60
2018-11-13T04:20:38.302Z,51.00
2018-11-13T04:21:41.612Z,58.90
2018-11-13T04:22:45.240Z,49.73
2018-11-13T04:23:48.555Z,50.00
2018-11-13T04:24:51.891Z,52.83
2018-11-13T04:25:55.240Z,51.23
2018-11-13T04:26:58.860Z,52.35
2018-11-13T04:28:02.191Z,53.73
2018-11-13T04:29:05.507Z,53.52
2018-11-13T04:30:10.374Z,54.33
2018-11-13T04:31:13.727Z,58.15
2018-11-13T04:32:17.040Z,55.92
2018-11-13T04:33:20.359Z,55.45
2018-11-13T04:34:23.674Z,56.25
2018-11-13T04:35:27.032Z,54.42
2018-11-13T04:36:30.344Z,60.38
2018-11-13T04:37:33.700Z,53.33
2018-11-13T04:38:37.014Z,50.28
2018-11-13T04:39:40.328Z,56.83
2018-11-13T04:40:43.639Z,49.95
2018-11-13T04:41:47.039Z,52.80
2018-11-13T04:42:51.740Z,59.70
2018-11-13T04:43:55.055Z,62.93
2018-11-13T04:44:58.379Z,58.42
2018-11-13T04:46:01.705Z,59.70
2018-11-13T04:47:05.676Z,50.38
2018-11-13T04:48:09.041Z,58.40
2018-11-13T04:49:12.399Z,58.58
2018-11-13T04:50:16.849Z,62.45
2018-11-13T04:51:20.188Z,54.73
2018-11-13T04:52:23.539Z,60.43
2018-11-13T04:53:26.865Z,65.42
2018-11-13T04:54:30.195Z,59.80
2018-11-13T04:55:33.514Z,57.30
2018-11-13T04:56:36.840Z,55.20
2018-11-13T04:57:41.389Z,54.75
2018-11-13T04:58:44.712Z,66.57
2018-11-13T04:59:48.028Z,60.83
2018-11-13T05:00:51.384Z,61.53
2018-11-13T05:01:54.807Z,66.57
2018-11-13T05:02:58.200Z,71.67
2018-11-13T05:04:01.518Z,69.15
2018-11-13T05:05:05.680Z,58.48
2018-11-13T05:06:09.038Z,63.68
2018-11-13T05:07:12.355Z,68.28
2018-11-13T05:08:15.751Z,67.65
2018-11-13T05:09:19.091Z,71.67
2018-11-13T05:10:22.592Z,73.45
2018-11-13T05:11:25.972Z,67.92
2018-11-13T05:12:29.297Z,64.27
2018-11-13T05:13:32.675Z,70.97
2018-11-13T05:14:35.991Z,70.20
2018-11-13T05:15:39.335Z,69.53
2018-11-13T05:16:42.655Z,76.92
2018-11-13T05:17:46.614Z,73.42
2018-11-13T05:18:49.930Z,71.02
2018-11-13T05:19:53.269Z,79.70
2018-11-13T05:20:56.657Z,73.47
2018-11-13T05:21:59.993Z,69.62
2018-11-13T05:23:03.371Z,57.25
2018-11-13T05:24:06.764Z,57.25
2018-11-13T05:25:12.109Z,52.05
2018-11-13T05:26:15.487Z,49.23
2018-11-13T05:27:18.812Z,48.13
2018-11-13T05:28:22.141Z,48.80
2018-11-13T05:29:25.507Z,52.13
2018-11-13T05:30:28.855Z,43.83
2018-11-13T05:31:32.216Z,43.25
2018-11-13T05:32:35.550Z,35.40
2018-11-13T05:33:38.882Z,39.05
2018-11-13T05:34:42.232Z,33.78
2018-11-13T05:35:45.556Z,25.02
2018-11-13T05:36:48.953Z,30.45
2018-11-13T05:37:52.283Z,21.15
2018-11-13T05:38:55.622Z,24.40
2018-11-13T05:39:58.966Z,24.18
2018-11-13T05:41:02.295Z,22.85
2018-11-13T05:42:05.704Z,26.35
2018-11-13T05:43:09.023Z,18.50
2018-11-13T05:44:12.350Z,20.72
2018-11-13T05:45:17.012Z,18.55
2018-11-13T05:46:20.372Z,19.95
2018-11-13T05:47:23.769Z,18.40
2018-11-13T05:48:27.036Z,20.05
2018-11-13T05:49:30.356Z,23.40
2018-11-13T05:50:33.719Z,19.37
2018-11-13T05:51:37.065Z,17.80
2018-11-13T05:52:41.279Z,19.30
2018-11-13T05:53:44.639Z,17.40
2018-11-13T05:54:47.953Z,18.55
2018-11-13T05:55:51.311Z,17.10
2018-11-13T05:56:54.633Z,15.38
2018-11-13T05:57:57.983Z,25.15
2018-11-13T05:59:01.354Z,16.45
2018-11-13T06:00:06.617Z,20.60
2018-11-13T06:01:09.941Z,19.92
2018-11-13T06:02:13.413Z,15.03
2018-11-13T06:03:16.765Z,14.93
2018-11-13T06:04:20.182Z,12.35
2018-11-13T06:05:23.533Z,19.55
2018-11-13T06:06:26.887Z,15.32
2018-11-13T06:07:30.207Z,17.15
2018-11-13T06:08:33.554Z,13.80
2018-11-13T06:09:36.864Z,15.65
2018-11-13T06:10:40.212Z,18.27
2018-11-13T06:11:43.567Z,17.80
2018-11-13T06:12:46.895Z,13.68
2018-11-13T06:13:50.279Z,16.30
2018-11-13T06:14:53.647Z,15.38
2018-11-13T06:15:56.962Z,13.72
2018-11-13T06:17:00.275Z,17.73
2018-11-13T06:18:03.636Z,16.55
2018-11-13T06:19:06.927Z,13.80
2018-11-13T06:20:11.552Z,12.65
2018-11-13T06:21:14.853Z,14.15
2018-11-13T06:22:18.167Z,14.80
2018-11-13T06:23:21.479Z,12.93
2018-11-13T06:24:24.783Z,18.90
2018-11-13T06:25:28.224Z,16.82
2018-11-13T06:26:31.510Z,19.12
2018-11-13T06:27:34.827Z,18.25
2018-11-13T06:28:38.146Z,15.90
2018-11-13T06:29:41.528Z,16.12
2018-11-13T06:30:44.816Z,14.68
2018-11-13T06:31:48.215Z,15.32
2018-11-13T06:32:51.698Z,22.27
2018-11-13T06:33:55.105Z,19.50
2018-11-13T06:34:58.447Z,23.12
2018-11-13T06:36:01.752Z,15.85
2018-11-13T06:37:05.047Z,16.67
2018-11-13T06:38:08.383Z,22.95
2018-11-13T06:39:13.427Z,15.18
2018-11-13T06:40:16.857Z,17.07
2018-11-13T06:41:20.288Z,24.07
2018-11-13T06:42:23.619Z,19.90
2018-11-13T06:43:27.003Z,19.12
2018-11-13T06:44:30.339Z,15.65
2018-11-13T06:45:33.649Z,13.03
2018-11-13T06:46:36.951Z,14.50
2018-11-13T06:47:40.339Z,14.28
2018-11-13T06:48:43.685Z,18.62
2018-11-13T06:49:46.992Z,17.92
2018-11-13T06:50:50.316Z,10.82
2018-11-13T06:51:53.647Z,11.73
2018-11-13T06:52:56.992Z,14.68
2018-11-13T06:54:11.614Z,12.88
2018-11-13T06:55:19.591Z,11.25
2018-11-13T06:56:22.922Z,16.82
2018-11-13T06:57:26.306Z,16.60
2018-11-13T06:58:29.627Z,14.65
2018-11-13T06:59:32.979Z,16.40
2018-11-13T07:00:36.297Z,13.10
2018-11-13T07:01:39.652Z,14.60
2018-11-13T07:02:43.028Z,16.93
2018-11-13T07:03:46.335Z,15.32
2018-11-13T07:04:49.745Z,13.53
2018-11-13T07:05:53.016Z,16.82
2018-11-13T07:06:56.319Z,11.97
2018-11-13T07:07:59.664Z,16.17
2018-11-13T07:09:03.049Z,16.93
2018-11-13T07:10:07.864Z,15.85
2018-11-13T07:11:11.236Z,14.40
2018-11-13T07:12:14.511Z,17.62
2018-11-13T07:13:17.827Z,12.82
2018-11-13T07:14:21.176Z,11.15
2018-11-13T07:15:25.720Z,9.78
2018-11-13T07:16:29.045Z,8.90
2018-11-13T07:17:32.397Z,9.98
2018-11-13T07:18:35.827Z,10.32
2018-11-13T07:19:39.144Z,10.28
2018-11-13T07:20:42.459Z,10.58
2018-11-13T07:21:45.767Z,7.83
2018-11-13T07:22:49.128Z,21.25
2018-11-13T07:23:52.475Z,11.88
2018-11-13T07:24:55.778Z,12.53
2018-11-13T07:25:59.128Z,8.65
2018-11-13T07:27:02.448Z,9.45
2018-11-13T07:28:05.940Z,12.60
2018-11-13T07:29:09.233Z,8.08
2018-11-13T07:30:13.838Z,11.35
2018-11-13T07:31:17.225Z,8.85
2018-11-13T07:32:20.548Z,7.20
2018-11-13T07:33:23.887Z,7.65
2018-11-13T07:34:27.268Z,8.15
2018-11-13T07:35:30.638Z,5.28
2018-11-13T07:36:33.961Z,14.07
2018-11-13T07:37:37.780Z,6.55
2018-11-13T07:38:41.132Z,7.03
2018-11-13T07:39:44.450Z,11.18
2018-11-13T07:40:47.786Z,7.72
2018-11-13T07:41:51.082Z,5.35
2018-11-13T07:42:54.566Z,7.22
2018-11-13T07:43:57.901Z,8.18
2018-11-13T07:45:01.202Z,6.17
2018-11-13T07:46:04.547Z,6.92
2018-11-13T07:47:07.861Z,5.33
2018-11-13T07:48:11.159Z,5.12
2018-11-13T07:49:14.453Z,4.35
2018-11-13T07:50:17.845Z,4.03
2018-11-13T07:51:21.243Z,3.87
2018-11-13T07:52:24.583Z,4.15
2018-11-13T07:53:27.890Z,4.05
2018-11-13T07:54:31.216Z,11.20
2018-11-13T07:55:34.635Z,4.20
2018-11-13T07:56:38.008Z,6.22
2018-11-13T07:57:41.387Z,3.55
2018-11-13T07:58:44.703Z,3.30
2018-11-13T07:59:48.039Z,6.05
2018-11-13T08:00:51.334Z,2.70
2018-11-13T08:01:54.635Z,3.27
2018-11-13T08:03:08.092Z,2.90
2018-11-13T08:04:11.391Z,3.02
2018-11-13T08:05:14.698Z,2.10
2018-11-13T08:06:18.034Z,2.27
2018-11-13T08:07:21.389Z,2.37
2018-11-13T08:08:24.696Z,2.12
2018-11-13T08:09:28.051Z,2.30
2018-11-13T08:10:31.356Z,2.22
2018-11-13T08:11:34.687Z,1.95
2018-11-13T08:12:38.025Z,5.30
2018-11-13T08:13:41.507Z,2.50
2018-11-13T08:14:44.764Z,2.42
2018-11-13T08:15:48.068Z,2.92
2018-11-13T08:16:51.451Z,2.50
2018-11-13T08:17:54.764Z,3.47
2018-11-13T08:18:58.116Z,5.87
2018-11-13T08:20:01.392Z,2.90
2018-11-13T08:21:04.762Z,3.12
2018-11-13T08:22:08.129Z,4.50
2018-11-13T08:23:11.392Z,2.35
2018-11-13T08:24:14.738Z,2.98
2018-11-13T08:25:18.067Z,2.72
2018-11-13T08:26:21.490Z,2.85
2018-11-13T08:27:24.791Z,3.95
2018-11-13T08:28:28.100Z,2.60
2018-11-13T08:29:31.445Z,5.05
2018-11-13T08:30:34.790Z,3.25
2018-11-13T08:31:38.140Z,2.50
2018-11-13T08:32:41.714Z,3.15
2018-11-13T08:33:45.045Z,3.05
2018-11-13T08:34:48.453Z,2.47
2018-11-13T08:35:51.757Z,3.55
2018-11-13T08:36:55.099Z,2.12
2018-11-13T08:37:58.423Z,3.33
2018-11-13T08:39:01.732Z,5.87
2018-11-13T08:40:06.767Z,1.92
2018-11-13T08:41:10.112Z,2.72
2018-11-13T08:42:13.463Z,4.08
2018-11-13T08:43:16.770Z,4.10
2018-11-13T08:44:20.297Z,4.92
2018-11-13T08:45:23.448Z,5.25
2018-11-13T08:46:26.776Z,2.60
2018-11-13T08:47:30.115Z,5.12
2018-11-13T08:48:33.859Z,5.70
2018-11-13T08:49:37.271Z,3.25
2018-11-13T08:50:40.638Z,3.75
2018-11-13T08:51:43.995Z,2.72
2018-11-13T08:52:47.681Z,3.58
2018-11-13T08:53:51.027Z,2.20
2018-11-13T08:54:54.332Z,2.10
2018-11-13T08:55:57.636Z,1.70
2018-11-13T08:57:00.959Z,1.85
2018-11-13T08:58:04.340Z,8.83
2018-11-13T08:59:07.833Z,2.87
2018-11-13T09:00:13.602Z,2.75
2018-11-13T09:01:16.929Z,2.35
2018-11-13T09:02:20.251Z,2.40
2018-11-13T09:03:23.643Z,1.95
2018-11-13T09:04:26.987Z,1.90
2018-11-13T09:05:31.148Z,2.05
2018-11-13T09:06:34.484Z,1.22
2018-11-13T09:07:38.228Z,1.70
2018-11-13T09:08:41.563Z,3.80
2018-11-13T09:09:44.960Z,1.77
2018-11-13T09:10:48.281Z,1.20
2018-11-13T09:11:51.679Z,1.40
2018-11-13T09:12:55.009Z,1.45
2018-11-13T09:13:58.320Z,1.30
2018-11-13T09:15:01.634Z,2.50
2018-11-13T09:16:05.360Z,3.25
2018-11-13T09:17:08.707Z,4.37
2018-11-13T09:18:12.020Z,2.52
2018-11-13T09:19:15.538Z,3.85
2018-11-13T09:20:19.815Z,3.60
2018-11-13T09:21:23.138Z,3.15
2018-11-13T09:22:26.455Z,3.02
2018-11-13T09:23:29.762Z,3.33
2018-11-13T09:24:33.119Z,3.30
2018-11-13T09:25:36.468Z,3.12
2018-11-13T09:26:39.795Z,3.22
2018-11-13T09:27:43.164Z,2.20
2018-11-13T09:28:46.483Z,2.50
2018-11-13T09:29:49.914Z,3.30
2018-11-13T09:30:53.535Z,2.50
2018-11-13T09:31:56.554Z,2.52
2018-11-13T09:32:59.928Z,2.15
2018-11-13T09:34:03.217Z,2.37
2018-11-13T09:35:07.006Z,2.12
2018-11-13T09:36:10.284Z,5.03
2018-11-13T09:37:13.632Z,2.50
2018-11-13T09:38:16.943Z,2.55
2018-11-13T09:39:20.348Z,3.87
2018-11-13T09:40:23.619Z,3.17
2018-11-13T09:41:26.957Z,2.55
2018-11-13T09:42:30.295Z,2.20
2018-11-13T09:43:33.602Z,3.02
2018-11-13T09:44:36.955Z,1.90
2018-11-13T09:45:40.323Z,6.37
2018-11-13T09:46:43.677Z,2.95
2018-11-13T09:47:47.073Z,2.60
2018-11-13T09:48:50.316Z,2.45
2018-11-13T09:49:53.623Z,1.65
2018-11-13T09:50:56.931Z,1.77
2018-11-13T09:52:00.275Z,1.80
2018-11-13T09:53:03.620Z,2.00
2018-11-13T09:54:06.935Z,2.20
2018-11-13T09:55:11.759Z,2.40
2018-11-13T09:56:15.139Z,2.20
2018-11-13T09:57:18.466Z,1.40
2018-11-13T09:58:21.775Z,1.80
2018-11-13T09:59:25.081Z,2.10
2018-11-13T10:00:28.496Z,2.25
2018-11-13T10:01:32.036Z,2.20
2018-11-13T10:02:35.648Z,1.60
2018-11-13T10:03:39.189Z,1.20
2018-11-13T10:04:42.762Z,1.80
2018-11-13T10:05:45.259Z,6.08
2018-11-13T10:06:48.523Z,1.47
2018-11-13T10:07:52.396Z,2.65
2018-11-13T10:08:55.780Z,3.60
2018-11-13T10:09:59.075Z,1.75
2018-11-13T10:11:02.396Z,1.82
2018-11-13T10:12:05.884Z,2.55
2018-11-13T10:13:09.184Z,1.90
2018-11-13T10:14:13.015Z,2.10
2018-11-13T10:15:19.095Z,1.42
2018-11-13T10:16:22.415Z,1.22
2018-11-13T10:17:25.988Z,1.98
2018-11-13T10:18:29.207Z,1.65
2018-11-13T10:19:32.463Z,1.85
2018-11-13T10:20:35.763Z,2.25
2018-11-13T10:21:39.080Z,1.37
2018-11-13T10:22:43.700Z,1.67
2018-11-13T10:23:47.040Z,1.30
2018-11-13T10:24:50.331Z,1.20
2018-11-13T10:25:53.635Z,1.40
2018-11-13T10:26:57.019Z,1.32
2018-11-13T10:28:00.306Z,1.35
2018-11-13T10:29:03.760Z,1.00
2018-11-13T10:30:09.783Z,3.27
2018-11-13T10:31:13.095Z,2.05
2018-11-13T10:32:16.400Z,1.20
2018-11-13T10:33:19.699Z,0.90
2018-11-13T10:34:23.012Z,0.90
2018-11-13T10:35:26.829Z,3.83
2018-11-13T10:36:30.150Z,2.27
2018-11-13T10:37:33.484Z,1.77
2018-11-13T10:38:36.803Z,3.45
2018-11-13T10:39:40.108Z,1.95
2018-11-13T10:40:43.613Z,2.92
2018-11-13T10:41:46.935Z,1.82
2018-11-13T10:42:50.695Z,1.60
2018-11-13T10:43:54.076Z,1.22
2018-11-13T10:44:57.375Z,2.02
2018-11-13T10:46:00.723Z,2.80
2018-11-13T10:47:04.052Z,0.90
2018-11-13T10:48:07.360Z,1.32
2018-11-13T10:49:10.748Z,1.10
2018-11-13T10:50:15.900Z,2.92
2018-11-13T10:51:19.205Z,1.98
2018-11-13T10:52:22.515Z,2.25
2018-11-13T10:53:25.836Z,2.30
2018-11-13T10:54:29.184Z,2.17
2018-11-13T10:55:32.507Z,1.07
2018-11-13T10:56:35.956Z,1.47
2018-11-13T10:57:40.143Z,1.42
2018-11-13T10:58:43.491Z,4.05
2018-11-13T10:59:46.840Z,2.65
2018-11-13T11:00:58.328Z,2.50
2018-11-13T11:02:05.869Z,1.47
2018-11-13T11:03:14.336Z,3.42
2018-11-13T11:04:22.859Z,3.65
2018-11-13T11:05:27.529Z,2.17
2018-11-13T11:06:32.652Z,3.08
2018-11-13T11:07:35.993Z,2.92
2018-11-13T11:08:39.345Z,1.55
2018-11-13T11:09:42.664Z,0.80
2018-11-13T11:10:45.984Z,1.20
2018-11-13T11:11:49.379Z,1.00
2018-11-13T11:12:52.743Z,1.25
2018-11-13T11:13:56.243Z,3.08
2018-11-13T11:14:59.466Z,1.40
2018-11-13T11:16:02.780Z,1.12
2018-11-13T11:17:06.365Z,1.50
2018-11-13T11:18:09.721Z,1.92
2018-11-13T11:19:13.084Z,3.72
2018-11-13T11:20:16.386Z,2.95
2018-11-13T11:21:19.699Z,3.35
2018-11-13T11:22:23.011Z,1.05
2018-11-13T11:23:26.448Z,0.90
2018-11-13T11:24:29.731Z,1.50
2018-11-13T11:25:33.054Z,1.07
2018-11-13T11:26:36.371Z,1.37
2018-11-13T11:27:39.756Z,2.87
2018-11-13T11:28:43.066Z,3.02
2018-11-13T11:29:46.399Z,1.80
2018-11-13T11:30:49.749Z,3.10
2018-11-13T11:31:53.055Z,2.08
2018-11-13T11:32:56.387Z,4.30
2018-11-13T11:33:59.726Z,0.90
2018-11-13T11:35:03.045Z,2.25
2018-11-13T11:36:06.411Z,3.25
2018-11-13T11:37:09.722Z,3.35
2018-11-13T11:38:13.068Z,1.75
2018-11-13T11:39:16.511Z,2.75
2018-11-13T11:40:19.751Z,3.92
2018-11-13T11:41:23.247Z,4.67
2018-11-13T11:42:26.559Z,1.12
2018-11-13T11:43:29.915Z,6.90
2018-11-13T11:44:33.362Z,1.30
2018-11-13T11:45:36.630Z,3.20
2018-11-13T11:46:39.945Z,1.87
2018-11-13T11:47:43.802Z,1.02
2018-11-13T11:48:47.125Z,2.02
2018-11-13T11:49:50.523Z,2.37
2018-11-13T11:50:53.835Z,4.00
2018-11-13T11:51:57.161Z,4.05
2018-11-13T11:53:00.480Z,1.20
2018-11-13T11:54:04.892Z,2.12
2018-11-13T11:55:08.517Z,1.32
2018-11-13T11:56:11.861Z,2.65
2018-11-13T11:57:15.169Z,2.75
2018-11-13T11:58:18.515Z,1.32
2018-11-13T11:59:21.843Z,5.15
2018-11-13T12:00:31.851Z,3.40
2018-11-13T12:01:35.147Z,2.08
2018-11-13T12:02:38.468Z,7.08
2018-11-13T12:03:41.914Z,9.35
2018-11-13T12:04:45.276Z,1.45
2018-11-13T12:05:48.585Z,5.53
2018-11-13T12:06:52.067Z,3.27
2018-11-13T12:07:55.410Z,1.90
2018-11-13T12:08:58.715Z,1.60
2018-11-13T12:10:02.067Z,2.55
2018-11-13T12:11:05.465Z,4.30
2018-11-13T12:12:08.812Z,1.40
2018-11-13T12:13:12.160Z,5.85
2018-11-13T12:14:15.483Z,2.25
2018-11-13T12:15:19.368Z,2.17
2018-11-13T12:16:22.681Z,3.08
2018-11-13T12:17:26.004Z,1.20
2018-11-13T12:18:29.307Z,3.42
2018-11-13T12:19:32.757Z,2.55
2018-11-13T12:20:35.996Z,4.12
2018-11-13T12:21:39.318Z,3.35
2018-11-13T12:22:42.825Z,1.15
2018-11-13T12:23:46.187Z,1.85
2018-11-13T12:24:49.565Z,11.30
2018-11-13T12:25:52.963Z,2.50
2018-11-13T12:26:56.232Z,1.32
2018-11-13T12:27:59.572Z,2.35
2018-11-13T12:29:02.875Z,1.50
2018-11-13T12:30:08.826Z,8.23
2018-11-13T12:31:12.128Z,2.10
2018-11-13T12:32:15.432Z,1.32
2018-11-13T12:33:18.772Z,6.58
2018-11-13T12:34:22.285Z,1.40
2018-11-13T12:35:25.621Z,1.92
2018-11-13T12:36:28.940Z,3.10
2018-11-13T12:37:32.291Z,2.85
2018-11-13T12:38:35.596Z,1.00
2018-11-13T12:39:38.916Z,2.33
2018-11-13T12:40:42.270Z,2.20
2018-11-13T12:41:45.587Z,1.92
2018-11-13T12:42:49.563Z,2.62
2018-11-13T12:43:52.860Z,6.90
2018-11-13T12:44:56.169Z,2.22
2018-11-13T12:45:59.495Z,0.95
2018-11-13T12:47:02.804Z,3.27
2018-11-13T12:48:06.579Z,2.35
2018-11-13T12:49:09.972Z,1.67
2018-11-13T12:50:14.283Z,0.80
2018-11-13T12:52:25.343Z,3.85
2018-11-13T12:53:28.666Z,1.80
2018-11-13T12:54:32.014Z,1.45
2018-11-13T12:55:35.423Z,5.40
2018-11-13T12:56:38.647Z,2.45
2018-11-13T12:57:41.953Z,5.67
2018-11-13T12:58:45.273Z,2.62
2018-11-13T12:59:48.665Z,3.25
2018-11-13T13:00:51.999Z,6.40
2018-11-13T13:01:55.365Z,8.13
2018-11-13T13:02:58.712Z,5.85
2018-11-13T13:04:02.036Z,5.40
2018-11-13T13:05:06.932Z,3.25
2018-11-13T13:06:10.239Z,6.53
2018-11-13T13:07:13.546Z,2.87
2018-11-13T13:08:16.887Z,5.50
2018-11-13T13:09:20.211Z,4.90
2018-11-13T13:10:23.519Z,3.20
2018-11-13T13:11:26.865Z,1.50
2018-11-13T13:12:30.175Z,1.10
2018-11-13T13:13:33.493Z,1.15
2018-11-13T13:14:36.853Z,4.17
2018-11-13T13:15:40.200Z,2.00
2018-11-13T13:16:43.579Z,1.12
2018-11-13T13:17:46.922Z,2.15
2018-11-13T13:18:50.348Z,5.47
2018-11-13T13:19:53.611Z,2.07
2018-11-13T13:20:56.951Z,3.42
2018-11-13T13:22:00.376Z,4.20
2018-11-13T13:23:03.703Z,5.60
2018-11-13T13:24:07.460Z,4.95
2018-11-13T13:25:12.827Z,5.92
2018-11-13T13:26:16.127Z,3.87
2018-11-13T13:27:19.468Z,3.25
2018-11-13T13:28:22.812Z,13.60
2018-11-13T13:29:26.195Z,1.98
2018-11-13T13:30:29.503Z,6.55
2018-11-13T13:31:32.839Z,2.42
2018-11-13T13:32:36.219Z,1.45
2018-11-13T13:33:39.566Z,1.05
2018-11-13T13:34:42.868Z,2.27
2018-11-13T13:35:47.504Z,2.58
2018-11-13T13:36:50.807Z,0.90
2018-11-13T13:37:54.108Z,4.70
2018-11-13T13:38:57.415Z,2.58
2018-11-13T13:40:00.723Z,8.40
2018-11-13T13:41:04.739Z,3.08
2018-11-13T13:42:08.066Z,1.42
2018-11-13T13:43:12.179Z,3.02
2018-11-13T13:44:15.535Z,1.27
2018-11-13T13:45:18.896Z,1.10
2018-11-13T13:46:22.295Z,3.15
2018-11-13T13:47:25.567Z,2.62
2018-11-13T13:48:29.023Z,2.42
2018-11-13T13:49:32.380Z,1.32
2018-11-13T13:50:35.865Z,4.55
2018-11-13T13:51:39.278Z,3.92
2018-11-13T13:52:42.623Z,1.30